createdAt,value
2023-01-19T00:01:56.808Z,100084.72
2023-01-19T00:04:23.164Z,100087.59
2023-01-19T00:06:49.504Z,100091.81
2023-01-19T00:09:15.915Z,100095.63
2023-01-19T00:11:42.313Z,100094.25
2023-01-19T00:14:08.708Z,100088.38
2023-01-19T00:16:35.116Z,100087.56
2023-01-19T00:19:06.884Z,100088.09
2023-01-19T00:21:33.263Z,100075.25
2023-01-19T00:23:59.598Z,100084.44
2023-01-19T00:26:28.474Z,100090.94
2023-01-19T00:28:57.771Z,100111.78
2023-01-19T00:31:24.354Z,100110.81
2023-01-19T00:33:53.099Z,100108.78
2023-01-19T00:36:22.760Z,100109.19
2023-01-19T00:38:49.473Z,100107.06
2023-01-19T00:41:19.962Z,100105.69
2023-01-19T00:43:46.291Z,100108.34
2023-01-19T00:46:12.733Z,100109.72
2023-01-19T00:48:39.107Z,100098.13
2023-01-19T00:51:05.574Z,100102.09
2023-01-19T00:53:32.655Z,100104.47
2023-01-19T00:55:59.128Z,100088.59
2023-01-19T00:58:33.534Z,100102.94
2023-01-19T01:01:06.633Z,100089.78
2023-01-19T01:03:33.618Z,100086.41
2023-01-19T01:06:10.250Z,100082.59
2023-01-19T01:08:36.679Z,100083.31
2023-01-19T01:11:06.790Z,100084.28
2023-01-19T01:13:37.800Z,100078.72
2023-01-19T01:16:09.687Z,100075.16
2023-01-19T01:18:38.921Z,100080.75
2023-01-19T01:21:08.352Z,100082.09
2023-01-19T01:23:35.554Z,100084.16
2023-01-19T01:26:02.972Z,100079.50
2023-01-19T01:28:32.639Z,100085.34
2023-01-19T01:30:59.262Z,100077.03
2023-01-19T01:33:39.824Z,100090.13
2023-01-19T01:36:16.145Z,100089.16
2023-01-19T01:38:42.733Z,100088.88
2023-01-19T01:41:16.113Z,100085.59
2023-01-19T01:43:55.689Z,100099.09
2023-01-19T01:46:26.842Z,100102.06
2023-01-19T01:49:10.445Z,100096.06
2023-01-19T01:51:42.220Z,100100.44
2023-01-19T01:54:08.500Z,100106.28
2023-01-19T01:56:44.627Z,100097.50
2023-01-19T01:59:43.648Z,100102.69
2023-01-19T02:02:37.329Z,100100.25
2023-01-19T02:05:35.788Z,100100.34
2023-01-19T02:08:59.495Z,100101.72
2023-01-19T02:11:46.845Z,100106.09
2023-01-19T02:14:18.565Z,100108.41
2023-01-19T02:16:46.032Z,100113.59
2023-01-19T02:19:17.960Z,100112.56
2023-01-19T02:22:09.712Z,100110.22
2023-01-19T02:27:19.024Z,100107.13
2023-01-19T02:29:47.904Z,100104.41
2023-01-19T02:32:14.405Z,100107.25
2023-01-19T02:34:45.552Z,100120.88
2023-01-19T02:37:18.326Z,100119.25
2023-01-19T02:39:55.840Z,100124.16
2023-01-19T02:43:00.841Z,100128.00
2023-01-19T02:48:20.636Z,100144.50
2023-01-19T02:50:53.877Z,100130.59
2023-01-19T02:53:45.683Z,100142.91
2023-01-19T02:56:51.047Z,100145.50
2023-01-19T02:59:52.932Z,100152.84
2023-01-19T03:02:50.924Z,100156.66
2023-01-19T03:05:52.711Z,100153.81
2023-01-19T03:08:53.336Z,100161.06
2023-01-19T03:11:20.653Z,100166.25
2023-01-19T03:14:10.238Z,100172.38
2023-01-19T03:16:42.562Z,100174.16
2023-01-19T03:19:19.156Z,100167.59
2023-01-19T03:22:13.922Z,100155.75
2023-01-19T03:24:46.464Z,100153.00
2023-01-19T03:27:28.284Z,100162.25
2023-01-19T03:30:24.610Z,100163.78
2023-01-19T03:33:13.515Z,100172.25
2023-01-19T03:35:49.639Z,100171.03
2023-01-19T03:38:24.412Z,100177.00
2023-01-19T03:40:56.043Z,100179.91
2023-01-19T03:43:25.937Z,100178.13
2023-01-19T03:45:56.877Z,100177.56
2023-01-19T03:48:25.413Z,100174.00
2023-01-19T03:50:52.787Z,100183.19
2023-01-19T03:53:23.490Z,100194.22
2023-01-19T03:55:55.005Z,100184.25
2023-01-19T03:58:22.312Z,100194.63
2023-01-19T04:03:29.032Z,100216.88
2023-01-19T04:05:59.472Z,100209.50
2023-01-19T04:08:28.721Z,100210.59
2023-01-19T04:10:59.601Z,100208.25
2023-01-19T04:13:29.485Z,100212.75
2023-01-19T04:16:11.604Z,100207.00
2023-01-19T04:18:43.074Z,100209.19
2023-01-19T04:21:09.524Z,100200.59
2023-01-19T04:23:35.938Z,100204.38
2023-01-19T04:26:06.874Z,100201.75
2023-01-19T04:28:42.326Z,100200.81
2023-01-19T04:31:12.304Z,100211.81
2023-01-19T04:33:41.898Z,100208.69
2023-01-19T04:36:08.704Z,100209.38
2023-01-19T04:38:38.833Z,100218.94
2023-01-19T04:41:08.047Z,100218.09
2023-01-19T04:43:34.494Z,100223.81
2023-01-19T04:46:04.383Z,100224.06
2023-01-19T04:48:30.892Z,100229.78
2023-01-19T04:50:57.255Z,100229.06
2023-01-19T04:53:26.741Z,100233.16
2023-01-19T04:55:57.126Z,100225.38
2023-01-19T04:58:26.081Z,100227.84
2023-01-19T05:00:53.109Z,100248.84
2023-01-19T05:03:20.090Z,100245.44
2023-01-19T05:05:46.580Z,100247.06
2023-01-19T05:08:18.260Z,100249.41
2023-01-19T05:10:44.654Z,100261.66
2023-01-19T05:13:11.050Z,100261.91
2023-01-19T05:15:42.039Z,100262.75
2023-01-19T05:18:08.412Z,100268.38
2023-01-19T05:20:34.808Z,100270.41
2023-01-19T05:23:03.175Z,100272.84
2023-01-19T05:25:32.113Z,100265.09
2023-01-19T05:27:58.490Z,100263.06
2023-01-19T05:30:28.448Z,100279.16
2023-01-19T05:32:57.717Z,100266.97
2023-01-19T05:35:35.314Z,100268.50
2023-01-19T05:38:04.361Z,100271.78
2023-01-19T05:40:33.112Z,100273.94
2023-01-19T05:43:04.654Z,100283.47
2023-01-19T05:45:31.186Z,100291.13
2023-01-19T05:48:00.565Z,100301.50
2023-01-19T05:50:29.753Z,100313.63
2023-01-19T05:53:03.883Z,100290.09
2023-01-19T05:55:31.293Z,100293.69
2023-01-19T05:57:57.706Z,100301.78
2023-01-19T06:00:29.106Z,100307.78
2023-01-19T06:02:55.620Z,100308.28
2023-01-19T06:05:22.015Z,100308.88
2023-01-19T06:07:53.898Z,100310.31
2023-01-19T06:10:20.270Z,100310.06
2023-01-19T06:12:46.584Z,100319.88
2023-01-19T06:15:16.465Z,100310.25
2023-01-19T06:17:45.754Z,100318.41
2023-01-19T06:20:15.992Z,100327.16
2023-01-19T06:22:42.319Z,100339.41
2023-01-19T06:25:09.245Z,100340.09
2023-01-19T06:27:36.382Z,100340.03
2023-01-19T06:30:07.245Z,100344.50
2023-01-19T06:32:33.680Z,100357.09
2023-01-19T06:35:00.115Z,100367.47
2023-01-19T06:37:28.245Z,100376.31
2023-01-19T06:39:56.969Z,100383.28
2023-01-19T06:42:23.296Z,100382.81
2023-01-19T06:44:52.155Z,100377.63
2023-01-19T06:47:25.754Z,100377.91
2023-01-19T06:52:36.942Z,100379.13
2023-01-19T06:55:06.722Z,100382.09
2023-01-19T06:57:33.157Z,100388.19
2023-01-19T07:00:05.074Z,100382.59
2023-01-19T07:02:31.684Z,100384.59
2023-01-19T07:04:58.174Z,100393.56
2023-01-19T07:07:33.694Z,100391.94
2023-01-19T07:10:00.058Z,100399.94
2023-01-19T07:12:31.018Z,100409.59
2023-01-19T07:15:00.155Z,100407.50
2023-01-19T07:17:28.730Z,100415.06
2023-01-19T07:20:04.209Z,100416.53
2023-01-19T07:22:43.316Z,100423.13
2023-01-19T07:25:09.891Z,100424.56
2023-01-19T07:27:41.453Z,100436.47
2023-01-19T07:30:09.047Z,100436.22
2023-01-19T07:32:43.329Z,100435.88
2023-01-19T07:35:12.559Z,100441.78
2023-01-19T07:37:46.346Z,100450.25
2023-01-19T07:40:15.863Z,100441.16
2023-01-19T07:42:55.437Z,100460.59
2023-01-19T07:45:22.001Z,100457.03
2023-01-19T07:47:57.691Z,100463.97
2023-01-19T07:50:26.019Z,100467.03
2023-01-19T07:52:55.655Z,100461.38
2023-01-19T07:55:25.136Z,100470.56
2023-01-19T07:57:54.359Z,100468.34
2023-01-19T08:00:25.500Z,100478.09
2023-01-19T08:02:52.495Z,100482.56
2023-01-19T08:05:24.060Z,100486.22
2023-01-19T08:07:52.643Z,100489.44
2023-01-19T08:10:25.619Z,100490.72
2023-01-19T08:12:56.214Z,100502.16
2023-01-19T08:15:27.989Z,100511.91
2023-01-19T08:18:01.412Z,100520.63
2023-01-19T08:20:31.362Z,100518.28
2023-01-19T08:23:02.065Z,100526.03
2023-01-19T08:25:36.420Z,100524.63
2023-01-19T08:28:07.228Z,100525.09
2023-01-19T08:30:39.491Z,100531.56
2023-01-19T08:33:10.973Z,100536.13
2023-01-19T08:35:41.290Z,100536.25
2023-01-19T08:38:08.915Z,100536.50
2023-01-19T08:40:42.768Z,100546.84
2023-01-19T08:43:16.957Z,100544.25
2023-01-19T08:45:56.422Z,100546.63
2023-01-19T08:48:34.408Z,100548.13
2023-01-19T08:51:00.852Z,100553.91
2023-01-19T08:53:42.074Z,100554.28
2023-01-19T08:56:14.663Z,100559.69
2023-01-19T08:58:43.590Z,100559.34
2023-01-19T09:01:38.716Z,100557.09
2023-01-19T09:04:05.556Z,100561.81
2023-01-19T09:06:33.063Z,100562.75
2023-01-19T09:09:02.515Z,100565.31
2023-01-19T09:11:31.890Z,100564.84
2023-01-19T10:05:58.129Z,100602.13
2023-01-19T10:08:54.686Z,100597.25
2023-01-19T10:11:51.592Z,100599.31
2023-01-19T10:14:39.569Z,100609.06
2023-01-19T10:17:21.001Z,100610.34
2023-01-19T10:19:56.154Z,100610.09
2023-01-19T10:22:28.429Z,100604.66
2023-01-19T10:24:59.194Z,100616.03
2023-01-19T10:27:31.044Z,100617.78
2023-01-19T10:30:01.318Z,100614.00
2023-01-19T10:32:34.169Z,100627.16
2023-01-19T10:35:02.971Z,100620.47
2023-01-19T10:37:39.610Z,100620.06
2023-01-19T10:40:36.960Z,100622.94
2023-01-19T10:43:37.223Z,100624.72
2023-01-19T10:46:27.177Z,100621.34
2023-01-19T10:48:57.116Z,100625.44
2023-01-19T10:51:23.698Z,100624.78
2023-01-19T10:54:03.066Z,100619.28
2023-01-19T10:56:38.491Z,100624.09
2023-01-19T10:59:06.889Z,100620.56
2023-01-19T11:01:39.838Z,100617.97
2023-01-19T11:04:31.433Z,100614.94
2023-01-19T11:07:14.852Z,100622.47
2023-01-19T11:10:10.343Z,100627.41
2023-01-19T11:12:42.069Z,100626.72
2023-01-19T11:15:19.444Z,100632.34
2023-01-19T11:17:49.048Z,100637.41
2023-01-19T11:20:30.774Z,100629.31
2023-01-19T11:23:19.214Z,100626.16
2023-01-19T11:25:54.530Z,100624.69
2023-01-19T11:28:43.601Z,100630.53
2023-01-19T11:31:11.935Z,100621.25
2023-01-19T11:33:49.053Z,100632.63
2023-01-19T11:36:45.927Z,100632.47
2023-01-19T11:39:12.297Z,100639.56
2023-01-19T11:41:42.491Z,100638.47
2023-01-19T11:44:18.149Z,100632.84
2023-01-19T11:46:51.944Z,100630.53
2023-01-19T11:49:46.648Z,100627.25
2023-01-19T11:52:34.533Z,100632.19
2023-01-19T11:55:16.293Z,100629.16
2023-01-19T11:57:46.597Z,100625.34
2023-01-19T12:00:38.332Z,100630.44
2023-01-19T12:03:34.797Z,100632.19
2023-01-19T12:06:23.737Z,100632.19
2023-01-19T12:08:56.012Z,100634.53
2023-01-19T12:11:31.605Z,100627.13
2023-01-19T12:14:05.657Z,100636.44
2023-01-19T12:16:37.410Z,100644.66
2023-01-19T12:19:18.382Z,100640.53
2023-01-19T12:21:51.495Z,100636.31
2023-01-19T12:24:28.354Z,100637.94
2023-01-19T12:26:57.709Z,100640.66
2023-01-19T12:29:28.795Z,100644.50
2023-01-19T12:32:20.986Z,100634.09
2023-01-19T12:34:58.081Z,100635.84
2023-01-19T12:37:27.164Z,100649.13
2023-01-19T12:40:02.171Z,100638.28
2023-01-19T12:42:29.880Z,100653.63
2023-01-19T12:45:15.675Z,100644.91
2023-01-19T12:47:52.900Z,100651.63
2023-01-19T12:50:29.592Z,100649.72
2023-01-19T12:53:04.946Z,100647.69
2023-01-19T12:55:36.432Z,100642.59
2023-01-19T12:58:27.238Z,100648.78
2023-01-19T13:01:18.705Z,100646.63
2023-01-19T13:04:28.326Z,100642.22
2023-01-19T13:07:08.413Z,100645.63
2023-01-19T13:09:42.536Z,100644.00
2023-01-19T13:12:25.673Z,100649.50
2023-01-19T13:15:27.572Z,100646.19
2023-01-19T13:18:25.542Z,100651.94
2023-01-19T13:21:07.257Z,100652.50
2023-01-19T13:23:51.854Z,100648.34
2023-01-19T13:26:23.027Z,100646.41
2023-01-19T13:28:55.368Z,100649.81
2023-01-19T13:31:26.082Z,100656.56
2023-01-19T13:33:58.817Z,100648.63
2023-01-19T13:36:37.388Z,100660.44
2023-01-19T13:39:18.300Z,100653.72
2023-01-19T13:41:51.977Z,100665.81
2023-01-19T13:45:03.011Z,100663.75
2023-01-19T13:47:41.066Z,100665.94
2023-01-19T13:50:23.463Z,100669.25
2023-01-19T13:55:37.528Z,100670.16
2023-01-19T13:58:07.378Z,100672.59
2023-01-19T14:00:33.999Z,100678.78
2023-01-19T14:03:15.640Z,100680.28
2023-01-19T14:05:53.230Z,100679.84
2023-01-19T14:08:25.621Z,100689.13
2023-01-19T14:10:56.313Z,100692.13
2023-01-19T14:13:50.631Z,100690.03
2023-01-19T14:16:20.332Z,100702.06
2023-01-19T14:18:59.019Z,100697.13
2023-01-19T14:21:25.572Z,100695.16
2023-01-19T14:24:17.878Z,100706.66
2023-01-19T14:27:19.186Z,100695.28
2023-01-19T14:29:47.437Z,100707.00
2023-01-19T14:32:41.100Z,100705.50
2023-01-19T14:35:10.882Z,100703.97
2023-01-19T14:37:50.792Z,100710.03
2023-01-19T14:40:22.874Z,100708.81
2023-01-19T14:42:57.930Z,100711.28
2023-01-19T14:45:49.872Z,100714.53
2023-01-19T14:48:20.398Z,100712.34
2023-01-19T14:51:02.793Z,100710.94
2023-01-19T14:53:39.689Z,100711.75
2023-01-19T14:56:06.975Z,100715.19
2023-01-19T14:58:37.902Z,100711.31
2023-01-19T15:01:09.141Z,100717.72
2023-01-19T15:03:46.076Z,100710.91
2023-01-19T15:06:20.789Z,100713.75
2023-01-19T15:08:50.104Z,100714.16
2023-01-19T15:11:35.898Z,100705.00
2023-01-19T15:14:11.722Z,100712.59
2023-01-19T15:16:38.210Z,100713.25
2023-01-19T15:19:09.019Z,100714.19
2023-01-19T15:21:35.646Z,100722.13
2023-01-19T15:24:01.961Z,100719.19
2023-01-19T15:26:33.069Z,100722.19
2023-01-19T15:28:59.469Z,100723.38
2023-01-19T15:31:26.524Z,100733.03
2023-01-19T15:33:56.727Z,100740.41
2023-01-19T15:36:25.880Z,100745.03
2023-01-19T15:38:59.665Z,100743.84
2023-01-19T15:41:29.940Z,100739.16
2023-01-19T15:44:01.266Z,100751.00
2023-01-19T15:46:30.726Z,100750.91
2023-01-19T15:48:57.087Z,100759.44
2023-01-19T15:51:28.212Z,100767.91
2023-01-19T15:53:58.680Z,100757.66
2023-01-19T15:56:27.947Z,100761.09
2023-01-19T15:58:58.768Z,100766.28
2023-01-19T16:01:39.991Z,100764.16
2023-01-19T16:04:13.303Z,100758.28
2023-01-19T16:06:42.399Z,100764.38
2023-01-19T16:09:08.780Z,100764.47
2023-01-19T16:11:38.319Z,100771.44
2023-01-19T16:14:04.881Z,100772.19
2023-01-19T16:16:31.423Z,100771.97
2023-01-19T16:19:02.527Z,100775.94
2023-01-19T16:21:28.954Z,100781.56
2023-01-19T16:23:55.438Z,100786.97
2023-01-19T16:26:34.351Z,100789.66
2023-01-19T16:29:14.228Z,100794.25
2023-01-19T16:31:43.207Z,100802.44
2023-01-19T16:34:14.999Z,100803.00
2023-01-19T16:36:42.393Z,100809.53
2023-01-19T16:39:12.301Z,100805.03
2023-01-19T16:41:42.468Z,100805.78
2023-01-19T16:44:17.595Z,100814.91
2023-01-19T16:46:46.476Z,100812.63
2023-01-19T16:49:28.089Z,100817.41
2023-01-19T16:54:39.766Z,100813.09
2023-01-19T16:57:08.704Z,100816.94
2023-01-19T16:59:35.555Z,100819.31
2023-01-19T17:02:04.920Z,100825.72
2023-01-19T17:04:34.594Z,100826.03
2023-01-19T17:07:01.054Z,100832.47
2023-01-19T17:09:30.576Z,100830.47
2023-01-19T17:12:00.280Z,100843.50
2023-01-19T17:14:30.268Z,100840.53
2023-01-19T17:16:56.976Z,100836.03
2023-01-19T17:19:32.464Z,100839.97
2023-01-19T17:21:58.957Z,100844.41
2023-01-19T17:24:25.561Z,100848.03
2023-01-19T17:26:52.035Z,100854.31
2023-01-19T17:29:21.659Z,100857.81
2023-01-19T17:31:51.517Z,100855.97
2023-01-19T17:39:49.326Z,100858.47
2023-01-19T17:42:15.877Z,100865.38
2023-01-19T17:44:42.427Z,100863.72
2023-01-19T17:47:09.585Z,100859.66
2023-01-19T17:49:38.849Z,100865.03
2023-01-19T17:52:05.198Z,100865.53
2023-01-19T17:54:36.120Z,100857.34
2023-01-19T17:57:05.329Z,100863.75
2023-01-19T17:59:34.719Z,100861.53
2023-01-19T18:02:01.380Z,100867.00
2023-01-19T18:04:43.000Z,100872.34
2023-01-19T18:07:09.361Z,100869.97
2023-01-19T18:09:35.737Z,100868.41
2023-01-19T18:12:15.164Z,100881.72
2023-01-19T18:14:43.364Z,100880.22
2023-01-19T18:17:09.792Z,100880.41
2023-01-19T18:19:36.995Z,100878.88
2023-01-19T18:22:03.453Z,100880.41
2023-01-19T18:24:32.990Z,100886.97
2023-01-19T18:27:02.636Z,100882.22
2023-01-19T18:29:35.679Z,100886.00
2023-01-19T18:32:05.550Z,100893.06
2023-01-19T18:34:39.292Z,100895.03
2023-01-19T18:37:05.703Z,100907.19
2023-01-19T18:39:32.172Z,100895.63
2023-01-19T18:42:02.280Z,100898.00
2023-01-19T18:44:31.743Z,100897.50
2023-01-19T18:46:58.143Z,100901.13
2023-01-19T18:49:33.587Z,100896.81
2023-01-19T18:52:00.059Z,100896.06
2023-01-19T18:54:29.589Z,100894.13
2023-01-19T18:56:58.764Z,100885.75
2023-01-19T18:59:28.132Z,100891.63
2023-01-19T19:01:54.965Z,100897.50
2023-01-19T19:04:21.414Z,100902.41
2023-01-19T19:06:47.823Z,100904.59
2023-01-19T19:09:14.277Z,100900.69
2023-01-19T19:11:40.671Z,100899.56
2023-01-19T19:14:07.111Z,100907.13
2023-01-19T19:16:36.209Z,100905.03
2023-01-19T19:19:11.835Z,100918.81
2023-01-19T19:21:40.569Z,100927.19
2023-01-19T19:24:08.321Z,100932.38
2023-01-19T19:26:38.507Z,100931.31
2023-01-19T19:29:10.834Z,100927.41
2023-01-19T19:31:37.445Z,100938.78
2023-01-19T19:34:04.003Z,100941.88
2023-01-19T19:36:33.906Z,100941.69
2023-01-19T19:39:03.039Z,100953.59
2023-01-19T19:41:36.371Z,100953.91
2023-01-19T19:44:05.683Z,100954.81
2023-01-19T19:46:32.248Z,100958.97
2023-01-19T19:49:02.023Z,100962.59
2023-01-19T19:51:28.580Z,100968.69
2023-01-19T19:53:59.411Z,100972.19
2023-01-19T19:56:32.257Z,100979.03
2023-01-19T19:59:07.065Z,100978.31
2023-01-19T20:01:34.170Z,100977.28
2023-01-19T20:04:19.978Z,100984.22
2023-01-19T20:06:52.063Z,100972.81
2023-01-19T20:09:18.556Z,100979.94
2023-01-19T20:11:46.621Z,100982.03
2023-01-19T20:14:16.556Z,100984.81
2023-01-19T20:16:43.764Z,100989.16
2023-01-19T20:19:10.813Z,100987.50
2023-01-19T20:21:39.850Z,100991.75
2023-01-19T20:24:09.799Z,100990.19
2023-01-19T20:26:40.405Z,100999.91
2023-01-19T20:29:10.959Z,101004.56
2023-01-19T20:31:43.901Z,101010.56
2023-01-19T20:34:14.830Z,101014.88
2023-01-19T20:36:45.190Z,101014.78
2023-01-19T20:39:15.153Z,101021.50
2023-01-19T20:41:51.204Z,101030.53
2023-01-19T20:44:23.329Z,101030.75
2023-01-19T20:46:54.033Z,101033.22
2023-01-19T20:49:24.571Z,101033.44
2023-01-19T20:51:53.288Z,101040.88
2023-01-19T20:54:32.424Z,101033.31
2023-01-19T20:56:59.812Z,101040.44
2023-01-19T20:59:29.091Z,101047.91
2023-01-19T21:02:07.932Z,101043.88
2023-01-19T21:04:34.575Z,101053.28
2023-01-19T21:07:05.209Z,101040.25
2023-01-19T21:09:35.402Z,101037.66
2023-01-19T21:12:04.692Z,101035.06
2023-01-19T21:14:31.163Z,101039.44
2023-01-19T21:16:58.398Z,101031.59
2023-01-19T21:22:06.222Z,101038.28
2023-01-19T21:24:35.134Z,101037.56
2023-01-19T21:27:04.398Z,101042.72
2023-01-19T21:29:37.504Z,101045.09
2023-01-19T21:32:07.600Z,101056.03
2023-01-19T21:34:42.037Z,101053.84
2023-01-19T21:37:08.500Z,101061.69
2023-01-19T21:39:34.894Z,101058.84
2023-01-19T21:42:09.560Z,101059.88
2023-01-19T21:44:36.073Z,101061.09
2023-01-19T21:47:13.542Z,101060.63
2023-01-19T21:49:39.880Z,101061.03
2023-01-19T21:52:11.499Z,101061.03
2023-01-19T21:54:37.877Z,101066.94
2023-01-19T21:57:04.286Z,101074.03
2023-01-19T21:59:34.165Z,101071.09
2023-01-19T22:02:03.828Z,101074.31
2023-01-19T22:04:32.897Z,101076.44
2023-01-19T22:06:59.521Z,101080.25
2023-01-19T22:09:28.893Z,101078.75
2023-01-19T22:11:58.411Z,101078.03
2023-01-19T22:14:32.329Z,101093.53
2023-01-19T22:17:01.131Z,101098.16
2023-01-19T22:19:34.953Z,101101.63
2023-01-19T22:22:01.367Z,101096.03
2023-01-19T22:24:28.477Z,101116.41
2023-01-19T22:26:58.091Z,101117.47
2023-01-19T22:29:28.019Z,101113.81
2023-01-19T22:31:54.704Z,101120.59
2023-01-19T22:34:25.261Z,101121.53
2023-01-19T22:36:57.317Z,101119.50
2023-01-19T22:39:27.829Z,101118.84
2023-01-19T22:41:57.581Z,101122.44
2023-01-19T22:44:27.013Z,101119.69
2023-01-19T22:49:38.457Z,101117.91
2023-01-19T22:52:05.050Z,101124.91
2023-01-19T22:54:32.424Z,101110.06
2023-01-19T22:56:58.827Z,101114.06
2023-01-19T22:59:28.431Z,101123.84
2023-01-19T23:01:54.927Z,101126.91
2023-01-19T23:04:21.321Z,101123.50
2023-01-19T23:06:57.191Z,101128.84
2023-01-19T23:09:23.580Z,101125.63
2023-01-19T23:11:56.108Z,101128.00
2023-01-19T23:14:22.646Z,101128.09
2023-01-19T23:16:49.141Z,101132.06
2023-01-19T23:19:18.961Z,101128.28
2023-01-19T23:21:51.134Z,101125.78
2023-01-19T23:24:23.492Z,101121.09
2023-01-19T23:26:50.451Z,101125.69
2023-01-19T23:29:18.160Z,101124.72
2023-01-19T23:31:47.653Z,101131.81
2023-01-19T23:34:14.918Z,101124.97
2023-01-19T23:36:45.168Z,101118.78
2023-01-19T23:39:21.134Z,101130.41
2023-01-19T23:41:53.012Z,101135.16
2023-01-19T23:44:19.664Z,101135.31
2023-01-19T23:46:54.333Z,101130.69
2023-01-19T23:49:23.614Z,101141.50
2023-01-19T23:51:49.951Z,101138.44
2023-01-19T23:54:19.259Z,101139.56
2023-01-19T23:56:48.596Z,101139.72
2023-01-19T23:59:19.997Z,101140.09
